Time;durP1;ratioP1;P1;durP2;ratioP2;P2;SDS_P1;SDS_P2;PMS_P1;PMS_P2;Temp;Humidity;BMP_temperature;BMP_pressure;BME280_temperature;BME280_humidity;BME280_pressure;Samples;Min_cycle;Max_cycle;Signal;HPM_P1;HPM_P2
2022/06/09 00:00:49;;;;;;;0.20;0.17;;;;;;;25.82;48.84;99011.94;5051247;28;20074;-72
2022/06/09 00:03:21;;;;;;;0.52;0.20;;;;;;;25.83;48.48;99010.72;5051442;28;20045;-72
2022/06/09 00:05:47;;;;;;;0.52;0.30;;;;;;;25.82;48.39;99009.94;5049594;28;20045;-72
2022/06/09 00:08:14;;;;;;;0.43;0.20;;;;;;;25.84;48.45;99006.72;5033542;28;20382;-72
2022/06/09 00:10:44;;;;;;;0.10;0.10;;;;;;;25.83;48.51;99019.13;5051232;28;20040;-72
2022/06/09 00:13:09;;;;;;;0.30;0.20;;;;;;;25.84;48.68;99015.13;5051227;28;20041;-72
2022/06/09 00:15:35;;;;;;;0.22;0.20;;;;;;;25.83;48.76;99025.53;5051116;28;20045;-72
2022/06/09 00:18:00;;;;;;;0.32;0.15;;;;;;;25.83;48.75;99024.75;5051035;28;20120;-72
2022/06/09 00:20:26;;;;;;;0.35;0.30;;;;;;;25.79;48.83;99017.19;5051184;28;20048;-72
2022/06/09 00:22:52;;;;;;;0.35;0.20;;;;;;;25.82;48.79;99023.16;5051095;28;20053;-72
2022/06/09 00:25:18;;;;;;;0.38;0.30;;;;;;;25.82;48.63;99023.16;5051058;28;20076;-72
2022/06/09 00:27:43;;;;;;;0.10;0.10;;;;;;;25.78;48.59;99023.97;5050985;28;20041;-72
2022/06/09 00:30:11;;;;;;;0.45;0.20;;;;;;;25.79;48.39;99011.56;5050887;28;20061;-72
2022/06/09 00:32:36;;;;;;;0.20;0.10;;;;;;;25.79;48.36;99022.78;5050887;28;20522;-72
2022/06/09 00:35:03;;;;;;;0.30;0.20;;;;;;;25.79;48.57;99022.00;5050893;28;20040;-72
2022/06/09 00:37:28;;;;;;;0.20;0.20;;;;;;;25.79;48.37;99019.19;5049816;28;20132;-72
2022/06/09 00:39:54;;;;;;;0.15;0.15;;;;;;;25.79;48.37;99003.19;5051065;28;20136;-72
2022/06/09 00:42:19;;;;;;;0.20;0.13;;;;;;;25.76;48.37;98997.59;5050511;28;20501;-72
2022/06/09 00:44:45;;;;;;;0.17;0.17;;;;;;;25.75;48.58;99001.63;5050639;28;20913;-72
2022/06/09 00:47:29;;;;;;;0.17;0.10;;;;;;;25.75;48.34;99016.41;5050767;28;20525;-72
2022/06/09 00:50:05;;;;;;;0.10;0.10;;;;;;;25.75;48.10;99010.81;5049150;28;20501;-72
2022/06/09 00:52:40;;;;;;;0.20;0.20;;;;;;;25.74;48.50;99016.84;5050812;28;20045;-72
2022/06/09 00:55:10;;;;;;;0.20;0.20;;;;;;;25.75;48.33;99019.22;5050636;28;20052;-72
2022/06/09 00:57:44;;;;;;;0.10;0.10;;;;;;;25.75;48.15;99013.63;5050433;28;20049;-72
2022/06/09 01:00:15;;;;;;;0.20;0.20;;;;;;;25.74;48.03;98995.22;5050566;28;20405;-72
2022/06/09 01:02:43;;;;;;;0.10;0.10;;;;;;;25.74;48.35;98997.22;5050312;28;20076;-72
2022/06/09 01:05:11;;;;;;;0.10;0.10;;;;;;;25.72;47.94;98994.06;5050128;28;20049;-72
2022/06/09 01:07:42;;;;;;;0.10;0.10;;;;;;;25.70;48.03;98985.22;5049904;28;20056;-72
2022/06/09 01:10:08;;;;;;;0.10;0.10;;;;;;;25.71;47.71;98995.22;5049395;28;20544;-72
2022/06/09 01:12:37;;;;;;;0.30;0.10;;;;;;;25.73;47.85;98996.44;5050271;28;20930;-72
2022/06/09 01:15:09;;;;;;;0.20;0.10;;;;;;;25.71;48.20;98990.41;5050005;28;20116;-72
2022/06/09 01:17:47;;;;;;;0.10;0.10;;;;;;;25.70;47.90;98977.63;5050016;28;20085;-72
2022/06/09 01:20:19;;;;;;;0.05;0.05;;;;;;;25.71;47.74;98982.00;5050119;28;20069;-72
2022/06/09 01:23:07;;;;;;;0.20;0.10;;;;;;;25.71;48.12;98972.81;5049933;28;20053;-72
2022/06/09 01:25:51;;;;;;;0.20;0.20;;;;;;;25.70;48.11;98976.81;5050029;28;20053;-72
2022/06/09 01:28:48;;;;;;;0.10;0.10;;;;;;;25.70;47.81;98969.22;5050296;28;20236;-72
2022/06/09 01:31:13;;;;;;;0.20;0.20;;;;;;;25.71;47.83;98968.00;5048589;28;20056;-72
2022/06/09 01:34:05;;;;;;;0.00;0.00;;;;;;;25.69;47.89;98978.03;5050018;28;20126;-72
2022/06/09 01:36:41;;;;;;;0.10;0.05;;;;;;;25.70;47.94;98977.63;5050113;28;20283;-72
2022/06/09 01:39:07;;;;;;;0.32;0.20;;;;;;;25.69;48.39;98978.03;5049990;28;20060;-72
2022/06/09 01:41:34;;;;;;;0.20;0.20;;;;;;;25.68;48.38;98973.66;5049851;28;20521;-72
2022/06/09 01:44:00;;;;;;;0.10;0.10;;;;;;;25.67;48.07;98964.47;5049786;28;20067;-67
2022/06/09 01:46:33;;;;;;;0.10;0.10;;;;;;;25.67;47.89;98972.88;5049931;28;20037;-67
2022/06/09 01:49:24;;;;;;;0.13;0.10;;;;;;;25.67;47.78;98972.88;5049321;28;20059;-67
2022/06/09 01:51:51;;;;;;;0.40;0.25;;;;;;;25.69;48.03;98970.44;5048498;28;20052;-68
2022/06/09 01:54:32;;;;;;;0.20;0.20;;;;;;;25.68;48.18;98973.66;5049543;28;20124;-67
2022/06/09 01:57:04;;;;;;;0.20;0.20;;;;;;;25.66;48.10;98962.09;5049500;28;20045;-67
2022/06/09 01:59:35;;;;;;;0.20;0.20;;;;;;;25.67;47.73;98972.88;5049474;28;20127;-67
2022/06/09 02:02:12;;;;;;;0.00;0.00;;;;;;;25.67;47.93;98974.88;5049484;28;20498;-67
2022/06/09 02:04:51;;;;;;;0.52;0.25;;;;;;;25.67;47.66;98974.88;5048207;28;20052;-67
2022/06/09 02:07:19;;;;;;;0.30;0.20;;;;;;;25.67;47.60;98969.28;5049473;28;20056;-67
2022/06/09 02:09:44;;;;;;;0.22;0.17;;;;;;;25.67;47.55;98972.06;5049494;28;20044;-67
2022/06/09 02:12:14;;;;;;;0.10;0.00;;;;;;;25.66;47.66;98962.88;5049646;28;20045;-67
2022/06/09 02:14:44;;;;;;;0.10;0.10;;;;;;;25.64;47.69;98979.28;5049372;28;20052;-67
2022/06/09 02:17:10;;;;;;;0.10;0.10;;;;;;;25.65;47.63;98982.91;5049344;28;20556;-67
2022/06/09 02:19:38;;;;;;;0.13;0.13;;;;;;;25.63;47.68;98988.13;5049359;28;20045;-67
2022/06/09 02:22:06;;;;;;;0.10;0.10;;;;;;;25.65;47.33;98980.91;5049474;28;20055;-67
2022/06/09 02:24:32;;;;;;;0.10;0.10;;;;;;;25.65;47.29;98980.09;5049353;28;20420;-67
2022/06/09 02:26:58;;;;;;;0.28;0.25;;;;;;;25.65;47.34;98983.72;5049350;28;20489;-72
2022/06/09 02:29:25;;;;;;;0.10;0.10;;;;;;;25.64;47.47;98978.50;5049300;28;20459;-72
2022/06/09 02:31:50;;;;;;;0.35;0.22;;;;;;;25.65;47.61;98982.91;5049434;28;20049;-72
2022/06/09 02:34:16;;;;;;;0.10;0.10;;;;;;;25.64;47.43;98996.09;5049190;28;20048;-72
2022/06/09 02:36:43;;;;;;;0.10;0.10;;;;;;;25.62;47.34;98990.13;5031326;28;20048;-72
2022/06/09 02:39:08;;;;;;;0.10;0.10;;;;;;;25.64;47.18;98989.69;5049242;28;20539;-72
2022/06/09 02:41:35;;;;;;;0.25;0.20;;;;;;;25.63;47.14;98988.91;5048986;28;20052;-72
2022/06/09 02:44:00;;;;;;;0.17;0.10;;;;;;;25.63;47.14;98988.91;5049109;28;20048;-72
2022/06/09 02:46:26;;;;;;;0.10;0.10;;;;;;;25.64;47.50;98990.50;5049246;28;20424;-72
2022/06/09 02:48:53;;;;;;;0.68;0.20;;;;;;;25.63;47.20;98988.91;5048851;28;20045;-72
2022/06/09 02:51:27;;;;;;;0.00;0.00;;;;;;;25.64;46.93;98989.69;5049045;28;20132;-72
2022/06/09 02:53:55;;;;;;;0.00;0.00;;;;;;;25.63;47.06;98988.13;5049065;28;20041;-72
2022/06/09 02:56:20;;;;;;;0.03;0.03;;;;;;;25.62;47.01;98990.13;5049015;28;20504;-72
2022/06/09 02:58:46;;;;;;;0.10;0.10;;;;;;;25.61;47.00;98993.34;5049066;28;20062;-72
2022/06/09 03:01:11;;;;;;;0.15;0.10;;;;;;;25.58;46.89;98986.59;5050934;28;20412;-72
2022/06/09 03:03:37;;;;;;;0.10;0.10;;;;;;;25.59;46.71;98990.97;5052438;28;20095;-72
2022/06/09 03:06:03;;;;;;;0.32;0.10;;;;;;;25.56;46.93;99000.19;5052272;28;20132;-72
2022/06/09 03:08:29;;;;;;;0.28;0.20;;;;;;;25.58;46.97;98997.78;5052335;28;20045;-72
2022/06/09 03:10:54;;;;;;;0.10;0.10;;;;;;;25.57;46.94;98998.97;5052315;28;20099;-72
2022/06/09 03:13:19;;;;;;;0.00;0.00;;;;;;;25.58;47.05;99009.00;5052252;28;20480;-72
2022/06/09 03:15:47;;;;;;;0.10;0.10;;;;;;;25.56;46.68;99005.78;5051940;28;20041;-72
2022/06/09 03:18:14;;;;;;;0.20;0.10;;;;;;;25.58;47.00;99011.78;5051966;28;20212;-72
2022/06/09 03:20:40;;;;;;;0.08;0.08;;;;;;;25.57;46.83;99017.78;5052137;28;20061;-72
2022/06/09 03:23:06;;;;;;;0.10;0.00;;;;;;;25.57;46.90;99026.97;5052096;28;20049;-72
2022/06/09 03:25:31;;;;;;;0.10;0.10;;;;;;;25.55;46.93;99028.63;5051958;28;20037;-72
2022/06/09 03:27:57;;;;;;;0.10;0.10;;;;;;;25.55;46.79;99029.41;5051956;28;20045;-72
2022/06/09 03:30:22;;;;;;;0.08;0.08;;;;;;;25.57;46.86;99024.19;5051847;28;20055;-67
2022/06/09 03:32:48;;;;;;;0.10;0.10;;;;;;;25.56;46.99;99031.00;5051998;28;20128;-67
2022/06/09 03:35:13;;;;;;;0.20;0.17;;;;;;;25.57;46.92;99031.78;5051668;28;20460;-67
2022/06/09 03:37:39;;;;;;;0.00;0.00;;;;;;;25.53;46.84;99040.25;5051742;28;20068;-67
2022/06/09 03:40:06;;;;;;;0.10;0.10;;;;;;;25.56;46.76;99050.59;5051752;28;20327;-67
2022/06/09 03:42:32;;;;;;;0.10;0.10;;;;;;;25.58;47.25;99053.81;5051868;28;20091;-67
2022/06/09 03:44:57;;;;;;;0.13;0.10;;;;;;;25.56;46.93;99049.81;5051750;28;20037;-67
2022/06/09 03:47:22;;;;;;;0.10;0.10;;;;;;;25.54;47.32;99053.03;5051727;28;20049;-67
2022/06/09 03:49:48;;;;;;;0.40;0.20;;;;;;;25.55;47.40;99054.63;5051484;28;20053;-67
2022/06/09 03:52:14;;;;;;;0.10;0.10;;;;;;;25.57;47.44;99057.00;5049571;28;20049;-67
2022/06/09 03:54:39;;;;;;;0.22;0.10;;;;;;;25.56;47.49;99056.22;5051552;28;20056;-67
2022/06/09 03:57:05;;;;;;;0.10;0.10;;;;;;;25.57;47.15;99051.41;5051496;28;20053;-68
2022/06/09 03:59:30;;;;;;;0.47;0.20;;;;;;;25.57;47.31;99040.97;5051586;28;20094;-67
2022/06/09 04:01:56;;;;;;;0.10;0.10;;;;;;;25.57;47.26;99055.00;5051735;28;20045;-67
2022/06/09 04:04:21;;;;;;;0.10;0.10;;;;;;;25.57;47.29;99057.00;5051426;28;20063;-67
2022/06/09 04:06:47;;;;;;;0.20;0.20;;;;;;;25.57;47.09;99060.59;5051399;28;20037;-67
2022/06/09 04:09:16;;;;;;;0.08;0.08;;;;;;;25.56;47.39;99067.41;5051282;28;20574;-67
2022/06/09 04:11:41;;;;;;;0.10;0.10;;;;;;;25.52;47.13;99053.47;5051108;28;20406;-67
2022/06/09 04:14:07;;;;;;;0.15;0.15;;;;;;;25.55;47.32;99059.44;5051317;28;20543;-67
2022/06/09 04:16:36;;;;;;;0.20;0.13;;;;;;;25.55;47.26;99065.03;5051132;28;20057;-67
2022/06/09 04:19:05;;;;;;;0.10;0.10;;;;;;;25.53;47.33;99071.84;5051123;28;20057;-67
2022/06/09 04:21:32;;;;;;;0.20;0.20;;;;;;;25.53;46.96;99065.44;5051298;28;20102;-67
2022/06/09 04:23:58;;;;;;;0.20;0.20;;;;;;;25.53;47.18;99060.66;5051201;28;20081;-67
2022/06/09 04:26:26;;;;;;;0.20;0.10;;;;;;;25.54;47.27;99058.63;5051131;28;20045;-67
2022/06/09 04:28:52;;;;;;;0.20;0.10;;;;;;;25.55;47.15;99056.63;5051362;28;20200;-68
2022/06/09 04:31:18;;;;;;;0.17;0.10;;;;;;;25.53;47.16;99057.06;5059280;28;20513;-68
2022/06/09 04:33:44;;;;;;;0.30;0.13;;;;;;;25.52;46.93;99056.25;5059350;28;20109;-68
2022/06/09 04:36:11;;;;;;;0.20;0.10;;;;;;;25.54;47.27;99058.63;5058434;28;20079;-67
2022/06/09 04:38:36;;;;;;;0.22;0.15;;;;;;;25.56;47.10;99066.63;5051805;28;20095;-67
2022/06/09 04:41:04;;;;;;;0.28;0.20;;;;;;;25.56;47.20;99058.22;5050811;28;20049;-67
2022/06/09 04:43:30;;;;;;;0.10;0.10;;;;;;;25.54;46.88;99064.22;5050560;28;20163;-67
2022/06/09 04:45:56;;;;;;;0.10;0.10;;;;;;;25.57;46.92;99065.41;5050674;28;20150;-67
2022/06/09 04:48:21;;;;;;;0.20;0.20;;;;;;;25.56;46.85;99066.63;5050722;28;20049;-67
2022/06/09 04:50:47;;;;;;;0.17;0.17;;;;;;;25.55;46.79;99068.63;5050617;28;20394;-67
2022/06/09 04:53:13;;;;;;;0.10;0.10;;;;;;;25.54;47.09;99067.03;5050485;28;20045;-67
2022/06/09 04:55:41;;;;;;;0.20;0.13;;;;;;;25.56;46.82;99072.22;5050465;28;20509;-67
2022/06/09 04:58:06;;;;;;;1.75;0.20;;;;;;;25.56;46.90;99078.63;5050455;28;20047;-67
2022/06/09 05:00:32;;;;;;;0.20;0.10;;;;;;;25.57;46.81;99069.00;5050598;28;20045;-67
2022/06/09 05:02:59;;;;;;;0.13;0.13;;;;;;;25.58;46.74;99079.00;5050547;28;20094;-67
2022/06/09 05:05:34;;;;;;;0.15;0.13;;;;;;;25.57;47.03;99080.19;5050441;28;20052;-67
2022/06/09 05:08:00;;;;;;;0.20;0.10;;;;;;;25.56;47.09;99078.63;5050199;28;20045;-68
2022/06/09 05:10:27;;;;;;;0.10;0.10;;;;;;;25.56;46.90;99075.00;5050191;28;20068;-67
2022/06/09 05:12:53;;;;;;;0.52;0.15;;;;;;;25.55;47.10;99077.03;5050189;28;20041;-71
2022/06/09 05:15:19;;;;;;;0.75;0.10;;;;;;;25.55;47.07;99081.84;5050364;28;20049;-71
2022/06/09 05:17:46;;;;;;;0.30;0.20;;;;;;;25.52;46.95;99077.88;5050119;28;20053;-71
2022/06/09 05:20:13;;;;;;;0.25;0.10;;;;;;;25.52;47.21;99077.88;5050161;28;20052;-71
2022/06/09 05:22:39;;;;;;;0.00;0.00;;;;;;;25.51;47.13;99076.28;5049595;28;20037;-71
2022/06/09 05:25:06;;;;;;;0.38;0.13;;;;;;;25.48;47.13;99077.88;5049926;28;20116;-69
2022/06/09 05:27:32;;;;;;;0.65;0.20;;;;;;;25.51;47.53;99085.47;5049997;28;20474;-71
2022/06/09 05:29:57;;;;;;;7.78;0.73;;;;;;;25.55;47.62;99081.84;5049888;28;20520;-73
2022/06/09 05:32:23;;;;;;;15.63;1.33;;;;;;;25.55;47.76;99084.63;5049869;28;20045;-73
2022/06/09 05:34:49;;;;;;;16.70;1.08;;;;;;;25.51;47.63;99079.09;5049852;28;20405;-72
2022/06/09 05:37:15;;;;;;;15.73;1.17;;;;;;;25.53;47.70;99079.47;5049648;28;20045;-72
2022/06/09 05:44:50;;;;;;;12.18;1.27;;;;;;;25.52;47.60;99089.88;5049857;28;20111;-72
2022/06/09 05:45:13;;;;;;;19.45;0.88;;;;;;;25.53;47.82;99096.25;5049633;28;20416;-72
2022/06/09 05:47:38;;;;;;;13.13;0.95;;;;;;;25.53;47.78;99099.84;5049452;28;20144;-72
2022/06/09 05:50:06;;;;;;;7.57;1.25;;;;;;;25.52;47.63;99101.06;5049552;28;20053;-72
2022/06/09 05:52:33;;;;;;;5.35;0.57;;;;;;;25.53;47.74;99104.66;5049573;28;20043;-72
2022/06/09 05:54:59;;;;;;;6.78;0.82;;;;;;;25.52;48.02;99098.25;5049472;28;20049;-72
2022/06/09 05:57:26;;;;;;;10.70;0.77;;;;;;;25.50;47.69;99097.88;5049616;28;20056;-72
2022/06/09 05:59:52;;;;;;;6.63;0.77;;;;;;;25.52;47.77;99103.06;5047259;28;20049;-72
2022/06/09 06:02:20;;;;;;;7.95;0.75;;;;;;;25.51;47.69;99102.28;5059124;28;20397;-72
2022/06/09 06:04:45;;;;;;;3.97;0.73;;;;;;;25.50;47.57;99091.47;5069346;28;20067;-72
2022/06/09 06:07:11;;;;;;;3.42;0.50;;;;;;;25.55;47.68;99104.25;5069715;28;20409;-72
2022/06/09 06:09:36;;;;;;;6.43;0.50;;;;;;;25.55;47.61;99104.25;5069455;28;20134;-70
2022/06/09 06:12:03;;;;;;;3.70;0.50;;;;;;;25.52;47.84;99100.28;5058401;28;20041;-69
2022/06/09 06:14:30;;;;;;;2.67;0.50;;;;;;;25.50;47.89;99102.66;5067926;28;20076;-69
2022/06/09 06:16:57;;;;;;;2.33;0.52;;;;;;;25.56;47.79;99106.63;5065588;28;20833;-74
2022/06/09 06:19:23;;;;;;;2.65;0.70;;;;;;;25.67;47.25;99112.94;5060225;28;20041;-74
2022/06/09 06:21:50;;;;;;;3.03;0.52;;;;;;;25.63;46.67;99109.34;5061051;28;20048;-65
2022/06/09 06:24:17;;;;;;;1.15;0.40;;;;;;;25.62;46.99;99104.97;5058627;28;20041;-65
2022/06/09 06:26:43;;;;;;;2.75;0.90;;;;;;;25.40;47.15;99114.78;5049038;28;20083;-65
2022/06/09 06:29:14;;;;;;;1.75;0.70;;;;;;;25.13;47.93;99104.19;5055453;28;20119;-65
2022/06/09 06:31:40;;;;;;;3.55;0.82;;;;;;;24.94;48.15;99122.31;5053345;28;20090;-73
2022/06/09 06:34:05;;;;;;;4.28;0.70;;;;;;;24.71;49.03;99114.44;5054922;28;20041;-65
2022/06/09 06:36:31;;;;;;;1.05;0.60;;;;;;;24.67;49.42;99113.69;5056389;28;20051;-65
2022/06/09 06:38:57;;;;;;;2.38;0.63;;;;;;;24.70;49.59;99123.25;5058314;28;20128;-73
2022/06/09 06:41:22;;;;;;;1.35;0.50;;;;;;;24.65;49.73;99124.47;5053241;28;20045;-75
2022/06/09 06:43:49;;;;;;;3.60;0.88;;;;;;;24.73;49.73;99125.25;5055669;28;20045;-76
2022/06/09 06:46:16;;;;;;;4.10;0.60;;;;;;;24.84;49.72;99134.34;5055386;28;20048;-73
2022/06/09 06:48:42;;;;;;;2.67;0.57;;;;;;;24.94;49.64;99127.91;5050949;28;20118;-70
2022/06/09 06:51:07;;;;;;;3.75;0.60;;;;;;;25.04;49.57;99139.44;5048747;28;20831;-71
2022/06/09 06:53:34;;;;;;;2.20;0.60;;;;;;;25.16;49.11;99144.56;5055538;28;20048;-75
2022/06/09 06:56:00;;;;;;;1.38;0.65;;;;;;;25.17;49.08;99155.34;5054749;28;20041;-74
2022/06/09 06:58:25;;;;;;;4.45;1.33;;;;;;;25.15;48.37;99168.19;5050523;28;20043;-75
2022/06/09 07:00:52;;;;;;;5.63;2.00;;;;;;;25.11;48.16;99173.00;5051620;28;20060;-75
2022/06/09 07:03:17;;;;;;;5.70;2.05;;;;;;;25.09;48.03;99173.41;5044778;28;20143;-73
2022/06/09 07:05:43;;;;;;;5.13;2.20;;;;;;;25.16;48.33;99178.94;5052690;28;20049;-74
2022/06/09 07:08:08;;;;;;;3.95;2.22;;;;;;;25.23;47.75;99176.09;5057018;28;20511;-74
2022/06/09 07:10:35;;;;;;;5.55;2.20;;;;;;;25.23;47.40;99181.69;5052089;28;20082;-71
2022/06/09 07:13:00;;;;;;;2.50;1.50;;;;;;;25.26;47.65;99182.88;5060378;28;20365;-71
2022/06/09 07:15:26;;;;;;;3.38;1.60;;;;;;;25.34;47.67;99184.41;5057727;28;20517;-71
2022/06/09 07:17:52;;;;;;;6.85;1.70;;;;;;;25.41;47.78;99189.16;5057272;28;20120;-72
2022/06/09 07:20:18;;;;;;;5.45;1.50;;;;;;;25.39;47.66;99191.59;5052327;28;20427;-72
2022/06/09 07:22:43;;;;;;;2.33;1.30;;;;;;;25.38;47.84;99190.78;5054570;28;20041;-72
2022/06/09 07:25:13;;;;;;;2.60;1.23;;;;;;;25.42;48.03;99202.75;5054824;28;20059;-72
2022/06/09 07:27:39;;;;;;;2.53;1.30;;;;;;;25.41;47.94;99211.56;5058886;28;20076;-72
2022/06/09 07:30:05;;;;;;;2.05;1.00;;;;;;;25.45;47.98;99215.16;5064274;28;20082;-72
2022/06/09 07:32:31;;;;;;;2.53;0.95;;;;;;;25.42;48.17;99218.75;5056157;28;20156;-72
2022/06/09 07:34:56;;;;;;;2.58;1.10;;;;;;;25.48;47.62;99222.72;5060115;28;20056;-73
2022/06/09 07:37:22;;;;;;;3.22;0.98;;;;;;;25.49;47.82;99213.91;5054954;28;20041;-73
2022/06/09 07:39:47;;;;;;;1.73;1.10;;;;;;;25.49;47.55;99210.31;5056383;28;20077;-73
2022/06/09 07:42:13;;;;;;;4.75;0.85;;;;;;;25.55;47.21;99222.66;5055858;28;21593;-73
2022/06/09 07:44:38;;;;;;;1.42;0.80;;;;;;;25.54;47.46;99215.47;5057169;28;20043;-73
2022/06/09 07:47:05;;;;;;;0.95;0.70;;;;;;;25.53;47.50;99216.69;5033140;28;20045;-73
2022/06/09 07:49:31;;;;;;;3.13;0.70;;;;;;;25.53;47.66;99205.47;5058163;28;20048;-73
2022/06/09 07:51:57;;;;;;;2.15;1.08;;;;;;;25.51;47.84;99196.69;5062244;28;20107;-73
2022/06/09 07:54:22;;;;;;;1.23;0.70;;;;;;;25.55;47.84;99202.25;5053171;28;20048;-72
2022/06/09 07:56:47;;;;;;;3.40;0.70;;;;;;;25.57;47.79;99208.25;5057951;28;20078;-73
2022/06/09 07:59:13;;;;;;;1.33;0.65;;;;;;;25.61;47.62;99207.00;5056736;28;20123;-73
2022/06/09 08:01:38;;;;;;;3.15;0.57;;;;;;;25.57;47.71;99195.03;5060506;28;20067;-69
2022/06/09 08:04:04;;;;;;;1.70;0.65;;;;;;;25.53;47.58;99197.06;5055906;28;20071;-69
2022/06/09 08:06:30;;;;;;;1.15;0.68;;;;;;;25.55;47.59;99199.47;5061035;28;20460;-68
2022/06/09 08:08:57;;;;;;;1.50;0.70;;;;;;;25.61;47.46;99197.81;5041081;28;20050;-66
2022/06/09 08:11:25;;;;;;;0.88;0.60;;;;;;;25.66;47.36;99200.97;5051405;28;20135;-66
2022/06/09 08:13:51;;;;;;;0.93;0.50;;;;;;;25.67;47.78;99191.34;5056796;28;20469;-67
2022/06/09 08:16:16;;;;;;;4.13;0.68;;;;;;;25.70;47.34;99196.13;5048570;28;20115;-66
2022/06/09 08:18:41;;;;;;;1.05;0.50;;;;;;;25.63;47.58;99198.97;5055799;28;20045;-66
2022/06/09 08:21:07;;;;;;;1.35;0.70;;;;;;;25.62;47.40;99203.00;5061002;28;20055;-66
2022/06/09 08:23:33;;;;;;;1.25;0.50;;;;;;;25.63;47.44;99207.38;5040734;28;20045;-67
2022/06/09 08:25:58;;;;;;;5.85;0.50;;;;;;;25.62;47.42;99191.78;5042451;28;20048;-66
2022/06/09 08:28:25;;;;;;;1.17;0.50;;;;;;;25.65;47.62;99205.00;5056167;28;20048;-67
2022/06/09 08:30:54;;;;;;;0.93;0.40;;;;;;;25.65;47.28;99201.41;5056390;28;20044;-66
2022/06/09 08:33:21;;;;;;;1.25;0.63;;;;;;;25.66;47.13;99200.97;5057299;28;20060;-66
2022/06/09 08:35:48;;;;;;;1.65;0.65;;;;;;;25.63;47.11;99192.59;5060592;28;20187;-68
2022/06/09 08:38:13;;;;;;;0.93;0.40;;;;;;;25.68;47.12;99198.53;5057886;28;20535;-66
2022/06/09 08:40:48;;;;;;;2.67;0.50;;;;;;;25.70;47.23;99196.13;5059320;28;20049;-67
2022/06/09 08:43:37;;;;;;;2.30;0.57;;;;;;;25.65;47.36;99205.00;5057884;28;20405;-64
2022/06/09 08:46:13;;;;;;;1.77;0.50;;;;;;;25.72;47.50;99198.56;5060217;28;20068;-70
2022/06/09 08:48:43;;;;;;;2.67;0.50;;;;;;;25.78;47.35;99206.09;5063753;28;20036;-69
2022/06/09 08:51:19;;;;;;;1.30;0.50;;;;;;;25.77;47.09;99204.50;5057833;28;20053;-79
2022/06/09 08:53:49;;;;;;;2.20;0.65;;;;;;;25.81;46.96;99212.09;5037944;28;20044;-75
2022/06/09 08:56:21;;;;;;;1.40;0.75;;;;;;;25.82;46.70;99210.88;5058859;28;20047;-76
2022/06/09 08:58:53;;;;;;;3.13;0.85;;;;;;;25.78;46.41;99220.09;5055216;28;20040;-77
2022/06/09 09:01:30;;;;;;;2.83;0.80;;;;;;;25.74;46.94;99219.34;5059421;28;20057;-75
2022/06/09 09:04:04;;;;;;;4.47;0.73;;;;;;;25.75;46.76;99229.34;5054545;28;20039;-76
2022/06/09 09:06:38;;;;;;;3.28;0.70;;;;;;;25.70;47.19;99229.75;5037488;28;20049;-75
2022/06/09 09:09:18;;;;;;;4.75;0.60;;;;;;;25.74;46.98;99232.56;5054816;28;20049;-75
2022/06/09 09:11:56;;;;;;;5.07;0.75;;;;;;;25.75;46.97;99225.75;5053593;28;20067;-77
2022/06/09 09:14:28;;;;;;;2.50;0.70;;;;;;;25.73;47.01;99240.16;5049929;28;20036;-66
2022/06/09 09:17:19;;;;;;;3.17;0.70;;;;;;;25.72;46.86;99240.59;5053173;28;20135;-65
2022/06/09 09:19:58;;;;;;;2.13;0.85;;;;;;;25.76;46.46;99239.31;5036056;28;20393;-75
2022/06/09 09:22:28;;;;;;;4.78;0.70;;;;;;;25.73;46.97;99242.19;5053477;28;20045;-77
2022/06/09 09:25:13;;;;;;;1.10;0.52;;;;;;;25.75;46.52;99246.16;5053480;28;20501;-76
2022/06/09 09:27:48;;;;;;;0.77;0.40;;;;;;;25.74;46.88;99240.97;5057147;28;20078;-75
2022/06/09 09:30:30;;;;;;;0.85;0.45;;;;;;;25.69;46.61;99236.56;5053306;28;20047;-75
2022/06/09 09:32:56;;;;;;;1.10;0.50;;;;;;;25.69;46.76;99238.56;5056068;28;20072;-76
2022/06/09 09:35:33;;;;;;;0.60;0.40;;;;;;;25.66;46.68;99248.59;5058569;28;20048;-76
2022/06/09 09:38:00;;;;;;;3.15;1.10;;;;;;;25.70;46.66;99252.16;5061987;28;20059;-77
2022/06/09 09:40:44;;;;;;;2.38;1.02;;;;;;;25.74;46.41;99249.38;5058260;28;20044;-74
2022/06/09 09:43:14;;;;;;;2.95;1.40;;;;;;;25.74;46.26;99247.34;5036596;28;20443;-73
2022/06/09 09:45:42;;;;;;;2.55;1.40;;;;;;;25.72;45.99;99249.78;5052879;28;20045;-75
2022/06/09 09:48:16;;;;;;;4.00;1.30;;;;;;;25.63;46.03;99248.59;5049116;28;20056;-76
2022/06/09 09:51:10;;;;;;;2.47;0.90;;;;;;;25.51;47.63;99253.50;5051302;28;20083;-77
2022/06/09 09:53:56;;;;;;;1.80;0.85;;;;;;;25.40;47.40;99254.78;5057416;28;20090;-75
2022/06/09 09:56:30;;;;;;;1.38;0.75;;;;;;;25.35;47.40;99255.19;5059746;28;20041;-73
2022/06/09 09:58:59;;;;;;;3.28;0.70;;;;;;;25.25;47.57;99265.28;5054865;28;20665;-75
2022/06/09 10:01:29;;;;;;;2.63;0.80;;;;;;;25.16;48.42;99259.34;5040245;28;20045;-74
2022/06/09 10:09:51;;;;;;;7.57;4.00;;;;;;;24.94;48.86;99265.00;5054261;28;20674;-77
2022/06/09 10:12:37;;;;;;;7.40;2.47;;;;;;;24.83;48.77;99266.25;5054821;28;20055;-74
2022/06/09 10:15:02;;;;;;;3.17;1.63;;;;;;;24.81;48.43;99263.06;5054207;28;20045;-74
2022/06/09 10:17:55;;;;;;;2.90;1.05;;;;;;;24.71;47.83;99262.69;5054359;28;20040;-74
2022/06/09 10:20:44;;;;;;;;;;;;;;;24.75;47.18;99271.06;5053619;28;20045;-78
2022/06/09 10:23:09;;;;;;;2.33;0.95;;;;;;;24.80;47.77;99279.06;5053516;28;20018;-76
2022/06/09 10:25:54;;;;;;;3.13;0.90;;;;;;;24.73;47.06;99273.47;5050709;28;20151;-66
2022/06/09 10:28:50;;;;;;;3.97;1.05;;;;;;;24.48;47.35;99262.34;5055462;28;20135;-66
2022/06/09 10:31:41;;;;;;;5.30;1.08;;;;;;;24.17;47.80;99280.75;5055708;28;20727;-65
2022/06/09 10:34:19;;;;;;;2.00;0.75;;;;;;;23.96;49.72;99276.00;5054122;28;20063;-65
2022/06/09 10:36:57;;;;;;;1.05;0.55;;;;;;;23.81;51.27;99280.78;5053452;28;20080;-64
2022/06/09 10:39:55;;;;;;;6.30;0.70;;;;;;;23.67;50.05;99271.59;5051345;28;20052;-74
2022/06/09 10:42:33;;;;;;;3.17;0.80;;;;;;;23.51;51.30;99277.53;5058866;28;20084;-74
2022/06/09 10:45:16;;;;;;;2.83;0.80;;;;;;;23.46;52.18;99275.13;5055002;28;20433;-73
2022/06/09 10:57:01;;;;;;;9.23;5.25;;;;;;;23.63;52.80;99277.16;5052310;28;20039;-73
2022/06/09 10:59:34;;;;;;;9.32;5.53;;;;;;;23.75;52.79;99276.78;5046124;28;20045;-73
2022/06/09 11:02:01;;;;;;;5.50;3.45;;;;;;;23.87;52.47;99278.38;5050023;28;20505;-72
2022/06/09 11:04:34;;;;;;;7.20;4.25;;;;;;;24.07;51.92;99275.97;5051981;28;20072;-75
2022/06/09 11:07:16;;;;;;;9.38;6.80;;;;;;;24.16;50.99;99279.97;5045371;28;20045;-75
2022/06/09 11:10:25;;;;;;;11.20;7.95;;;;;;;24.18;50.28;99282.34;5054073;28;20094;-70
2022/06/09 11:13:34;;;;;;;17.08;11.55;;;;;;;24.31;50.18;99291.13;5052834;28;20056;-73
2022/06/09 11:16:09;;;;;;;27.50;20.33;;;;;;;24.21;49.94;99289.13;5062349;28;20036;-74
2022/06/09 11:19:05;;;;;;;10.45;7.63;;;;;;;24.24;49.55;99291.13;5036058;28;20049;-84
2022/06/09 11:21:51;;;;;;;5.05;2.50;;;;;;;23.88;51.26;99302.31;5056852;28;20405;-79
2022/06/09 11:24:24;;;;;;;54.33;32.47;;;;;;;23.70;52.59;99307.88;5060317;28;20041;-76
2022/06/09 11:27:00;;;;;;;15.70;7.88;;;;;;;23.57;53.88;99310.22;5061777;28;20086;-76
2022/06/09 11:29:44;;;;;;;10.45;4.95;;;;;;;23.60;53.96;99317.84;5063167;28;20036;-71
2022/06/09 11:32:18;;;;;;;9.10;2.67;;;;;;;23.49;54.32;99308.63;5058570;28;20044;-73
2022/06/09 11:34:46;;;;;;;10.63;2.70;;;;;;;23.48;54.19;99306.22;5056687;28;20053;-70
2022/06/09 11:37:27;;;;;;;3.92;1.80;;;;;;;23.45;54.15;99313.41;5053485;28;20053;-70
2022/06/09 11:40:25;;;;;;;7.97;1.98;;;;;;;23.52;54.05;99323.78;5061157;28;20436;-74
2022/06/09 11:43:15;;;;;;;7.63;3.45;;;;;;;23.52;53.64;99321.78;5047204;28;20041;-74
2022/06/09 11:45:57;;;;;;;13.40;7.85;;;;;;;23.42;53.51;99305.81;5062586;28;20071;-74
2022/06/09 11:48:29;;;;;;;16.30;11.73;;;;;;;23.46;53.28;99317.78;5052265;28;20291;-74
2022/06/09 11:50:57;;;;;;;14.50;6.45;;;;;;;23.35;53.12;99323.31;5062531;28;20045;-74
2022/06/09 11:53:28;;;;;;;8.23;5.45;;;;;;;23.48;53.30;99320.97;5052886;28;20523;-74
2022/06/09 11:56:33;;;;;;;6.15;3.55;;;;;;;23.61;53.15;99322.25;5033140;28;20060;-69
2022/06/09 11:59:19;;;;;;;6.28;3.55;;;;;;;23.82;52.71;99327.06;5047832;28;20075;-70
2022/06/09 12:01:54;;;;;;;5.25;3.08;;;;;;;24.01;52.46;99325.09;5066289;28;20096;-69
2022/06/09 12:04:35;;;;;;;6.03;2.63;;;;;;;24.22;52.17;99327.88;5048110;28;20087;-68
2022/06/09 12:07:13;;;;;;;7.55;2.70;;;;;;;24.35;52.33;99320.69;5049441;28;20071;-68